Air Quality Table

TIMESTAMP NO2 SO2 O3 PM10 PM2.5 TEMP HUM AIRPRES WS WD NO
2022-10-02 09:00 6.07 µg/m3 0.04 µg/m3 71.65 µg/m3 13.46 µg/m3 4.9 µg/m3 22.59 °C 61.49 % 1,016.38 mbar 4.78 m/s 316.34 Deg 1.34 µg/m3
2022-10-02 01:00 7.57 µg/m3 0.02 µg/m3 69.22 µg/m3 15.13 µg/m3 5.77 µg/m3 24.22 °C 69.29 % 1,014.66 mbar 4 m/s 336.34 Deg 1.33 µg/m3
2022-10-01 17:00 7.74 µg/m3 0.03 µg/m3 72.66 µg/m3 40.31 µg/m3 10.85 µg/m3 26.7 °C 83.41 % 1,011.16 mbar 4.04 m/s 211.97 Deg 2.37 µg/m3
2022-10-01 09:00 5.18 µg/m3 0 µg/m3 63.22 µg/m3 54.65 µg/m3 14.04 µg/m3 25.26 °C 98.88 % 1,006.38 mbar 3.48 m/s 54.29 Deg 1.46 µg/m3
2022-10-01 01:00 0.77 µg/m3 -0.02 µg/m3 62.32 µg/m3 37.55 µg/m3 11.12 µg/m3 25.62 °C 99.25 % 1,003.81 mbar 6.76 m/s 132.52 Deg 0.93 µg/m3
2022-09-30 17:00 1.37 µg/m3 -0.01 µg/m3 69.35 µg/m3 30.78 µg/m3 11.24 µg/m3 26.59 °C 91.59 % 1,004.01 mbar 6.44 m/s 139.26 Deg 1.04 µg/m3
2022-09-30 09:00 3.62 µg/m3 0.02 µg/m3 68.65 µg/m3 15.44 µg/m3 8.31 µg/m3 25.3 °C 86.69 % 1,002.90 mbar 5.09 m/s 148.59 Deg 1 µg/m3
2022-09-30 01:00 5.66 µg/m3 0.03 µg/m3 72.55 µg/m3 15.59 µg/m3 6.26 µg/m3 24.79 °C 73.75 % 1,003.17 mbar 2.97 m/s 182.1 Deg 0.97 µg/m3
2022-09-29 17:00 7.25 µg/m3 0.17 µg/m3 71.23 µg/m3 42.87 µg/m3 22.46 µg/m3 26.23 °C 63.3 % 1,002.90 mbar 4.31 m/s 204.9 Deg 3.58 µg/m3
2022-09-29 09:00 18.73 µg/m3 0.06 µg/m3 55.8 µg/m3 20.12 µg/m3 7.27 µg/m3 23.07 °C 75.78 % 1,003.47 mbar 1.65 m/s 265.52 Deg 2.49 µg/m3
2022-09-29 01:00 18.4 µg/m3 0.05 µg/m3 57.2 µg/m3 23.93 µg/m3 7.14 µg/m3 23.12 °C 71.72 % 1,003.93 mbar 1.25 m/s 290.51 Deg 1.47 µg/m3
2022-09-28 17:00 10.69 µg/m3 0.03 µg/m3 78.72 µg/m3 18.46 µg/m3 6.82 µg/m3 25.82 °C 61.6 % 1,003.42 mbar 3.45 m/s 291.42 Deg 2.69 µg/m3
2022-09-28 09:00 22.91 µg/m3 0.09 µg/m3 49.05 µg/m3 19.27 µg/m3 6.9 µg/m3 22.61 °C 76.96 % 1,003.74 mbar 1.45 m/s 293.87 Deg 3.11 µg/m3
2022-09-28 01:00 16.66 µg/m3 0.03 µg/m3 62.38 µg/m3 20.8 µg/m3 6.59 µg/m3 23.61 °C 79.75 % 1,003.95 mbar 1.42 m/s 312.39 Deg 1.53 µg/m3
2022-09-27 17:00 13.85 µg/m3 0.04 µg/m3 74.18 µg/m3 27.55 µg/m3 7.58 µg/m3 26.15 °C 74.41 % 1,003.21 mbar 3.07 m/s 307.6 Deg 3.08 µg/m3
2022-09-27 09:00 25.94 µg/m3 0.07 µg/m3 50.91 µg/m3 27.59 µg/m3 8.21 µg/m3 24.6 °C 81.34 % 1,003.04 mbar 1.54 m/s 299.83 Deg 4 µg/m3
2022-09-27 01:00 7.23 µg/m3 -0.02 µg/m3 74.35 µg/m3 42.83 µg/m3 12.07 µg/m3 26.02 °C 86.99 % 1,003.13 mbar 2.98 m/s 278.78 Deg 1.01 µg/m3
2022-09-26 17:00 8.17 µg/m3 0.02 µg/m3 67.24 µg/m3 28.39 µg/m3 8.17 µg/m3 27.13 °C 79.41 % 1,004.22 mbar 6.14 m/s 196.7 Deg 2.02 µg/m3
2022-09-26 09:00 12.55 µg/m3 0.03 µg/m3 68.32 µg/m3 18.17 µg/m3 6.27 µg/m3 25.28 °C 79.43 % 1,006.31 mbar 5.22 m/s 185.43 Deg 1.43 µg/m3
2022-09-26 01:00 14.18 µg/m3 0.01 µg/m3 69.74 µg/m3 16.07 µg/m3 5.71 µg/m3 24.97 °C 74.26 % 1,008.74 mbar 5.14 m/s 183.03 Deg 1.09 µg/m3

It is to be noted that the data is provisional and subject to quality assurance procedures. For validated data kindly refer your request to contact.air@era.org.mt